Time;durP1;ratioP1;P1;durP2;ratioP2;P2;SDS_P1;SDS_P2;PMS_P1;PMS_P2;Temp;Humidity;BMP_temperature;BMP_pressure;BME280_temperature;BME280_humidity;BME280_pressure;Samples;Min_cycle;Max_cycle;Signal;HPM_P1;HPM_P2
2023/05/04 00:02:22;;;;;;;5.50;4.90;;;;;;;;;;5014157;28;20795;-69
2023/05/04 00:04:52;;;;;;;6.60;4.50;;;;;;;;;;5014290;28;20202;-69
2023/05/04 00:07:19;;;;;;;5.20;4.60;;;;;;;;;;5013185;28;20201;-69
2023/05/04 00:09:47;;;;;;;5.82;3.80;;;;;;;;;;5013838;28;20466;-70
2023/05/04 00:12:14;;;;;;;8.03;4.63;;;;;;;;;;5013808;28;20204;-69
2023/05/04 00:14:42;;;;;;;5.72;4.80;;;;;;;;;;5013764;28;20435;-69
2023/05/04 00:17:09;;;;;;;9.20;5.53;;;;;;;;;;5013767;28;20197;-69
2023/05/04 00:19:39;;;;;;;8.38;4.93;;;;;;;;;;5013863;28;20231;-69
2023/05/04 00:22:06;;;;;;;6.83;4.77;;;;;;;;;;5013753;28;20204;-69
2023/05/04 00:24:33;;;;;;;7.32;5.10;;;;;;;;;;5013808;28;20444;-69
2023/05/04 00:27:02;;;;;;;7.65;5.20;;;;;;;;;;5013744;28;20298;-69
2023/05/04 00:29:30;;;;;;;6.10;4.70;;;;;;;;;;5013652;28;20204;-69
2023/05/04 00:31:57;;;;;;;5.95;5.35;;;;;;;;;;5013590;28;20466;-69
2023/05/04 00:34:24;;;;;;;6.57;4.82;;;;;;;;;;5013365;28;20676;-68
2023/05/04 00:36:51;;;;;;;4.65;4.25;;;;;;;;;;5013472;28;20676;-68
2023/05/04 00:39:18;;;;;;;5.88;4.75;;;;;;;;;;5013671;28;20230;-69
2023/05/04 00:41:46;;;;;;;5.67;4.90;;;;;;;;;;5013553;28;20196;-69
2023/05/04 00:44:14;;;;;;;5.30;4.70;;;;;;;;;;5013935;28;20453;-68
2023/05/04 00:46:41;;;;;;;6.15;5.57;;;;;;;;;;5013168;28;20650;-69
2023/05/04 00:49:09;;;;;;;6.93;5.05;;;;;;;;;;5013675;28;20200;-69
2023/05/04 00:51:37;;;;;;;8.27;5.15;;;;;;;;;;5013421;28;20206;-69
2023/05/04 00:54:04;;;;;;;5.57;4.57;;;;;;;;;;5013873;28;20201;-69
2023/05/04 00:56:32;;;;;;;6.33;5.10;;;;;;;;;;5013303;28;20486;-69
2023/05/04 00:58:59;;;;;;;9.13;5.95;;;;;;;;;;5013343;28;20761;-69
2023/05/04 01:01:28;;;;;;;7.93;5.17;;;;;;;;;;5013327;28;20552;-69
2023/05/04 01:03:55;;;;;;;7.88;5.35;;;;;;;;;;5012904;28;20479;-69
2023/05/04 01:06:27;;;;;;;5.50;4.90;;;;;;;;;;5013304;28;20204;-69
2023/05/04 01:08:58;;;;;;;7.00;4.83;;;;;;;;;;5013899;28;20582;-69
2023/05/04 01:11:28;;;;;;;5.38;4.70;;;;;;;;;;5013276;28;20432;-70
2023/05/04 01:13:56;;;;;;;6.68;5.45;;;;;;;;;;5012942;28;20646;-69
2023/05/04 01:16:23;;;;;;;7.38;5.60;;;;;;;;;;5013103;28;20216;-69
2023/05/04 01:18:52;;;;;;;6.97;4.90;;;;;;;;;;5014994;28;20192;-69
2023/05/04 01:21:19;;;;;;;7.63;5.72;;;;;;;;;;5016592;28;20603;-69
2023/05/04 01:23:48;;;;;;;6.07;5.50;;;;;;;;;;5017002;28;20200;-69
2023/05/04 01:26:17;;;;;;;8.68;5.10;;;;;;;;;;5016503;28;20204;-69
2023/05/04 01:28:48;;;;;;;7.47;5.28;;;;;;;;;;5016541;28;20200;-69
2023/05/04 01:31:15;;;;;;;7.07;5.88;;;;;;;;;;5016885;28;20180;-69
2023/05/04 01:33:43;;;;;;;9.53;5.70;;;;;;;;;;5016558;28;20196;-69
2023/05/04 01:36:11;;;;;;;11.70;6.07;;;;;;;;;;5016215;28;20466;-69
2023/05/04 01:38:38;;;;;;;13.70;5.32;;;;;;;;;;5016508;28;20236;-69
2023/05/04 01:41:08;;;;;;;8.00;5.93;;;;;;;;;;5016176;28;20196;-69
2023/05/04 01:43:35;;;;;;;8.75;6.50;;;;;;;;;;5016309;28;20438;-69
2023/05/04 01:46:02;;;;;;;6.70;5.85;;;;;;;;;;5016431;28;20203;-70
2023/05/04 01:48:29;;;;;;;11.02;6.10;;;;;;;;;;5016600;28;20200;-69
2023/05/04 01:50:56;;;;;;;12.13;5.63;;;;;;;;;;5016607;28;20645;-69
2023/05/04 01:53:24;;;;;;;6.70;5.40;;;;;;;;;;5015981;28;20451;-69
2023/05/04 01:55:51;;;;;;;8.90;5.95;;;;;;;;;;5015940;28;20471;-69
2023/05/04 01:58:19;;;;;;;6.50;5.13;;;;;;;;;;5015854;28;20202;-69
2023/05/04 02:00:46;;;;;;;6.57;5.30;;;;;;;;;;5016740;28;20482;-69
2023/05/04 02:03:14;;;;;;;6.85;5.50;;;;;;;;;;5015751;28;20956;-69
2023/05/04 02:05:41;;;;;;;6.65;5.95;;;;;;;;;;5015807;28;20664;-69
2023/05/04 02:08:08;;;;;;;6.78;5.55;;;;;;;;;;5015602;28;20196;-69
2023/05/04 02:10:35;;;;;;;6.03;5.47;;;;;;;;;;5015715;28;20200;-69
2023/05/04 02:13:02;;;;;;;5.88;5.15;;;;;;;;;;5015785;28;20652;-69
2023/05/04 02:15:31;;;;;;;6.07;5.47;;;;;;;;;;5015592;28;20223;-69
2023/05/04 02:17:58;;;;;;;7.65;6.10;;;;;;;;;;5015899;28;20247;-69
2023/05/04 02:20:25;;;;;;;7.80;5.10;;;;;;;;;;5015575;28;20661;-69
2023/05/04 02:22:52;;;;;;;7.38;5.38;;;;;;;;;;5015735;28;20469;-69
2023/05/04 02:25:19;;;;;;;7.00;5.65;;;;;;;;;;5015957;28;20208;-69
2023/05/04 02:27:47;;;;;;;6.15;5.40;;;;;;;;;;5015967;28;20211;-69
2023/05/04 02:30:15;;;;;;;8.68;5.85;;;;;;;;;;5015441;28;20205;-69
2023/05/04 02:32:43;;;;;;;8.30;5.65;;;;;;;;;;5015149;28;20196;-69
2023/05/04 02:35:11;;;;;;;10.85;5.80;;;;;;;;;;5015190;28;20661;-69
2023/05/04 02:37:39;;;;;;;9.40;5.70;;;;;;;;;;5014715;28;20352;-69
2023/05/04 02:40:07;;;;;;;7.05;5.88;;;;;;;;;;5015317;28;20239;-69
2023/05/04 02:42:34;;;;;;;9.68;5.90;;;;;;;;;;5015370;28;20603;-68
2023/05/04 02:45:01;;;;;;;7.40;5.75;;;;;;;;;;5015355;28;20275;-69
2023/05/04 02:47:28;;;;;;;10.45;5.45;;;;;;;;;;5015127;28;20559;-69
2023/05/04 02:49:57;;;;;;;6.60;5.95;;;;;;;;;;5015326;28;20223;-69
2023/05/04 02:52:24;;;;;;;9.95;6.25;;;;;;;;;;5015184;28;20200;-69
2023/05/04 02:54:51;;;;;;;8.05;6.65;;;;;;;;;;5015655;28;20206;-69
2023/05/04 02:57:18;;;;;;;12.52;5.75;;;;;;;;;;5015357;28;20220;-70
2023/05/04 02:59:46;;;;;;;10.75;5.95;;;;;;;;;;5015543;28;20192;-70
2023/05/04 03:02:13;;;;;;;6.45;5.43;;;;;;;;;;5014963;28;20254;-70
2023/05/04 03:04:40;;;;;;;8.20;5.55;;;;;;;;;;5014796;28;20211;-69
2023/05/04 03:07:10;;;;;;;8.25;5.93;;;;;;;;;;5015123;28;20200;-70
2023/05/04 03:09:37;;;;;;;7.30;5.88;;;;;;;;;;5015218;28;20196;-69
2023/05/04 03:12:05;;;;;;;8.60;6.30;;;;;;;;;;5013632;28;20199;-68
2023/05/04 03:14:32;;;;;;;8.10;6.18;;;;;;;;;;5014475;28;20195;-69
2023/05/04 03:16:59;;;;;;;6.53;5.60;;;;;;;;;;5014484;28;20226;-69
2023/05/04 03:19:26;;;;;;;8.02;5.90;;;;;;;;;;5014515;28;20275;-68
2023/05/04 03:21:53;;;;;;;6.57;5.93;;;;;;;;;;5014416;28;20197;-69
2023/05/04 03:24:22;;;;;;;12.07;7.37;;;;;;;;;;5014107;28;20455;-69
2023/05/04 03:26:49;;;;;;;8.05;5.50;;;;;;;;;;5014225;28;20461;-69
2023/05/04 03:29:16;;;;;;;7.90;5.55;;;;;;;;;;5014087;28;20196;-69
2023/05/04 03:31:43;;;;;;;8.82;6.50;;;;;;;;;;5014421;28;20200;-69
2023/05/04 03:34:13;;;;;;;7.85;6.78;;;;;;;;;;5013994;28;20201;-71
2023/05/04 03:36:40;;;;;;;7.95;6.22;;;;;;;;;;5014648;28;20216;-69
2023/05/04 03:39:08;;;;;;;7.88;7.00;;;;;;;;;;5014206;28;20224;-69
2023/05/04 03:41:37;;;;;;;7.25;6.55;;;;;;;;;;5012877;28;20200;-69
2023/05/04 03:44:04;;;;;;;9.68;6.25;;;;;;;;;;5014348;28;20192;-69
2023/05/04 03:46:31;;;;;;;7.50;6.40;;;;;;;;;;5014473;28;20228;-69
2023/05/04 03:48:59;;;;;;;7.53;6.80;;;;;;;;;;5014157;28;20202;-69
2023/05/04 03:51:26;;;;;;;9.07;6.88;;;;;;;;;;5014056;28;20195;-69
2023/05/04 03:53:53;;;;;;;8.85;6.47;;;;;;;;;;5013781;28;20196;-67
2023/05/04 03:56:21;;;;;;;7.45;6.32;;;;;;;;;;5013912;28;20227;-69
2023/05/04 03:58:49;;;;;;;8.05;5.28;;;;;;;;;;5013788;28;20199;-69
2023/05/04 04:01:17;;;;;;;12.55;6.68;;;;;;;;;;5013825;28;20196;-69
2023/05/04 04:03:44;;;;;;;14.95;7.25;;;;;;;;;;5013580;28;20602;-69
2023/05/04 04:06:12;;;;;;;9.23;6.65;;;;;;;;;;5013781;28;20557;-68
2023/05/04 04:08:39;;;;;;;9.27;7.03;;;;;;;;;;5013310;28;20250;-69
2023/05/04 04:11:06;;;;;;;8.25;7.13;;;;;;;;;;5013584;28;20197;-69
2023/05/04 04:13:34;;;;;;;6.75;5.97;;;;;;;;;;5013394;28;20192;-69
2023/05/04 04:16:02;;;;;;;10.85;7.78;;;;;;;;;;5013338;28;20200;-69
2023/05/04 04:18:29;;;;;;;10.65;6.32;;;;;;;;;;5013110;28;20200;-69
2023/05/04 04:20:56;;;;;;;8.98;6.10;;;;;;;;;;5013533;28;20192;-69
2023/05/04 04:23:24;;;;;;;8.95;7.00;;;;;;;;;;5013140;28;20196;-69
2023/05/04 04:25:52;;;;;;;12.18;6.57;;;;;;;;;;5013015;28;20283;-69
2023/05/04 04:28:20;;;;;;;8.00;6.68;;;;;;;;;;5013441;28;20204;-69
2023/05/04 04:30:47;;;;;;;8.00;5.93;;;;;;;;;;5013039;28;20196;-69
2023/05/04 04:33:15;;;;;;;8.07;6.15;;;;;;;;;;5013360;28;20561;-70
2023/05/04 04:35:43;;;;;;;9.03;6.37;;;;;;;;;;5013075;28;20627;-71
2023/05/04 04:38:10;;;;;;;11.48;6.75;;;;;;;;;;5013268;28;20685;-79
2023/05/04 04:40:37;;;;;;;10.68;6.55;;;;;;;;;;5013305;28;20511;-72
2023/05/04 04:43:04;;;;;;;11.88;5.97;;;;;;;;;;5013484;28;20563;-73
2023/05/04 04:45:32;;;;;;;28.33;18.50;;;;;;;;;;5013231;28;20286;-74
2023/05/04 04:48:00;;;;;;;30.30;20.63;;;;;;;;;;5013173;28;20351;-73
2023/05/04 04:50:29;;;;;;;10.77;6.70;;;;;;;;;;5012965;28;20478;-73
2023/05/04 04:52:56;;;;;;;13.77;6.35;;;;;;;;;;5014761;28;20196;-74
2023/05/04 04:55:24;;;;;;;10.30;6.45;;;;;;;;;;5017437;28;20207;-73
2023/05/04 04:57:52;;;;;;;12.48;7.00;;;;;;;;;;5016846;28;20295;-74
2023/05/04 05:00:19;;;;;;;9.90;6.75;;;;;;;;;;5017140;28;20197;-74
2023/05/04 05:02:46;;;;;;;7.82;6.10;;;;;;;;;;5016883;28;20203;-74
2023/05/04 05:05:13;;;;;;;7.85;6.78;;;;;;;;;;5016709;28;20207;-75
2023/05/04 05:07:42;;;;;;;9.10;6.68;;;;;;;;;;5016550;28;20204;-74
2023/05/04 05:10:09;;;;;;;7.90;7.10;;;;;;;;;;5017214;28;20195;-74
2023/05/04 05:12:37;;;;;;;10.60;7.00;;;;;;;;;;5017093;28;20210;-74
2023/05/04 05:15:04;;;;;;;8.93;6.97;;;;;;;;;;5016941;28;20197;-74
2023/05/04 05:17:34;;;;;;;8.45;6.75;;;;;;;;;;5016459;28;20557;-74
2023/05/04 05:20:01;;;;;;;10.70;6.90;;;;;;;;;;5016512;28;20601;-74
2023/05/04 05:22:28;;;;;;;9.10;6.15;;;;;;;;;;5017030;28;20196;-74
2023/05/04 05:24:57;;;;;;;8.50;6.95;;;;;;;;;;5017128;28;20203;-75
2023/05/04 05:27:24;;;;;;;8.32;7.47;;;;;;;;;;5016470;28;20200;-74
2023/05/04 05:29:51;;;;;;;9.20;6.00;;;;;;;;;;5016186;28;20201;-74
2023/05/04 05:32:19;;;;;;;8.47;6.10;;;;;;;;;;5016682;28;20505;-74
2023/05/04 05:34:46;;;;;;;6.63;6.03;;;;;;;;;;5016574;28;21000;-74
2023/05/04 05:37:13;;;;;;;11.60;6.70;;;;;;;;;;5016283;28;20236;-73
2023/05/04 05:39:40;;;;;;;8.02;6.05;;;;;;;;;;5016285;28;20437;-74
2023/05/04 05:42:09;;;;;;;15.27;6.63;;;;;;;;;;5016252;28;20219;-74
2023/05/04 05:44:36;;;;;;;7.43;6.40;;;;;;;;;;5016131;28;20646;-74
2023/05/04 05:47:03;;;;;;;20.53;16.70;;;;;;;;;;5016062;28;20478;-74
2023/05/04 05:49:30;;;;;;;20.17;9.20;;;;;;;;;;5016026;28;20489;-74
2023/05/04 05:51:58;;;;;;;8.60;6.25;;;;;;;;;;5016307;28;20196;-74
2023/05/04 05:54:26;;;;;;;10.27;7.30;;;;;;;;;;5015957;28;20200;-74
2023/05/04 05:56:53;;;;;;;7.78;6.00;;;;;;;;;;5016071;28;20278;-73
2023/05/04 05:59:21;;;;;;;13.73;6.85;;;;;;;;;;5015944;28;20285;-74
2023/05/04 06:01:49;;;;;;;9.50;6.40;;;;;;;;;;5015744;28;20674;-74
2023/05/04 06:04:16;;;;;;;9.77;6.23;;;;;;;;;;5015605;28;20768;-74
2023/05/04 06:06:43;;;;;;;16.67;6.47;;;;;;;;;;5016043;28;20792;-73
2023/05/04 06:09:10;;;;;;;13.00;7.00;;;;;;;;;;5016345;28;20783;-74
2023/05/04 06:11:37;;;;;;;9.05;6.90;;;;;;;;;;5015910;28;20517;-74
2023/05/04 06:14:05;;;;;;;10.90;6.30;;;;;;;;;;5016385;28;20196;-73
2023/05/04 06:16:33;;;;;;;13.03;6.40;;;;;;;;;;5015682;28;20447;-73
2023/05/04 06:19:00;;;;;;;9.83;6.90;;;;;;;;;;5015531;28;20446;-73
2023/05/04 06:21:27;;;;;;;9.30;6.10;;;;;;;;;;5015971;28;20555;-73
2023/05/04 06:23:55;;;;;;;9.63;6.60;;;;;;;;;;5015521;28;20964;-73
2023/05/04 06:26:22;;;;;;;9.67;6.90;;;;;;;;;;5015661;28;20941;-73
2023/05/04 06:28:49;;;;;;;8.83;6.47;;;;;;;;;;5015363;28;20513;-73
2023/05/04 06:31:17;;;;;;;10.33;6.37;;;;;;;;;;5015584;28;20439;-74
2023/05/04 06:33:45;;;;;;;9.17;6.70;;;;;;;;;;5016219;28;20855;-73
2023/05/04 06:36:13;;;;;;;11.43;6.70;;;;;;;;;;5015429;28;20445;-73
2023/05/04 06:38:40;;;;;;;6.90;6.20;;;;;;;;;;5015298;28;20634;-73
2023/05/04 06:41:08;;;;;;;6.97;6.10;;;;;;;;;;5015367;28;20500;-74
2023/05/04 06:43:35;;;;;;;10.33;7.30;;;;;;;;;;5016415;28;20452;-74
2023/05/04 06:46:02;;;;;;;11.33;6.87;;;;;;;;;;5015669;28;20463;-73
2023/05/04 06:48:30;;;;;;;11.07;7.00;;;;;;;;;;5015905;28;20452;-74
2023/05/04 06:50:58;;;;;;;7.47;6.77;;;;;;;;;;5015314;28;20435;-73
2023/05/04 06:53:25;;;;;;;9.10;7.17;;;;;;;;;;5014947;28;20534;-73
2023/05/04 06:55:52;;;;;;;9.80;7.37;;;;;;;;;;5015225;28;20547;-73
2023/05/04 06:58:20;;;;;;;15.03;7.40;;;;;;;;;;5014814;28;20479;-72
2023/05/04 07:00:47;;;;;;;11.60;7.90;;;;;;;;;;5015026;28;20447;-73
2023/05/04 07:03:15;;;;;;;17.73;8.47;;;;;;;;;;5015053;28;20445;-72
2023/05/04 07:05:43;;;;;;;11.63;7.20;;;;;;;;;;5014949;28;20491;-73
2023/05/04 07:08:12;;;;;;;8.67;6.27;;;;;;;;;;5014770;28;20543;-74
2023/05/04 07:10:40;;;;;;;7.80;6.67;;;;;;;;;;5015065;28;20448;-74
2023/05/04 07:13:07;;;;;;;10.43;6.97;;;;;;;;;;5014573;28;20448;-73
2023/05/04 07:15:34;;;;;;;9.90;7.03;;;;;;;;;;5014480;28;20532;-74
2023/05/04 07:18:01;;;;;;;7.53;6.77;;;;;;;;;;5014565;28;20490;-73
2023/05/04 07:20:29;;;;;;;18.40;7.80;;;;;;;;;;5014719;28;20797;-73
2023/05/04 07:22:56;;;;;;;9.40;6.60;;;;;;;;;;5014357;28;20537;-73
2023/05/04 07:25:25;;;;;;;9.93;7.47;;;;;;;;;;5014471;28;20440;-73
2023/05/04 07:27:52;;;;;;;7.93;7.13;;;;;;;;;;5014655;28;20464;-73
2023/05/04 07:30:19;;;;;;;8.63;6.50;;;;;;;;;;5014168;28;20937;-73
2023/05/04 07:32:47;;;;;;;11.77;7.30;;;;;;;;;;5014462;28;20438;-73
2023/05/04 07:35:14;;;;;;;13.13;7.93;;;;;;;;;;5014436;28;20451;-73
2023/05/04 07:37:41;;;;;;;9.10;6.70;;;;;;;;;;5014311;28;20502;-74
2023/05/04 07:40:09;;;;;;;11.13;7.17;;;;;;;;;;5014201;28;20450;-73
2023/05/04 07:42:37;;;;;;;13.30;6.80;;;;;;;;;;5014310;28;20496;-74
2023/05/04 07:45:05;;;;;;;7.10;6.47;;;;;;;;;;5014313;28;20437;-73
2023/05/04 07:47:32;;;;;;;8.13;7.30;;;;;;;;;;5013913;28;20446;-73
2023/05/04 07:49:59;;;;;;;8.90;6.80;;;;;;;;;;5013963;28;20952;-74
2023/05/04 07:52:27;;;;;;;11.30;7.53;;;;;;;;;;5013842;28;20450;-73
2023/05/04 07:54:54;;;;;;;9.40;7.37;;;;;;;;;;5014138;28;20437;-73
2023/05/04 07:57:22;;;;;;;15.00;7.47;;;;;;;;;;5014383;28;20485;-73
2023/05/04 07:59:53;;;;;;;7.67;6.90;;;;;;;;;;5013768;28;20536;-74
2023/05/04 08:02:21;;;;;;;11.17;7.80;;;;;;;;;;5013866;28;20438;-73
2023/05/04 08:04:48;;;;;;;12.60;7.20;;;;;;;;;;5013750;28;20457;-74
2023/05/04 08:07:15;;;;;;;11.40;7.10;;;;;;;;;;5013936;28;20446;-74
2023/05/04 08:09:43;;;;;;;16.27;8.90;;;;;;;;;;5014516;28;20811;-73
2023/05/04 08:12:11;;;;;;;12.47;8.50;;;;;;;;;;5013416;28;20436;-74
2023/05/04 08:14:38;;;;;;;10.50;8.33;;;;;;;;;;5013540;28;20461;-74
2023/05/04 08:17:07;;;;;;;7.33;6.67;;;;;;;;;;5013996;28;20488;-73
2023/05/04 08:19:34;;;;;;;12.30;7.50;;;;;;;;;;5013835;28;20944;-73
2023/05/04 08:22:02;;;;;;;12.80;7.50;;;;;;;;;;5013300;28;20453;-73
2023/05/04 08:24:30;;;;;;;10.53;7.13;;;;;;;;;;5013381;28;20536;-72
2023/05/04 08:26:58;;;;;;;13.30;7.60;;;;;;;;;;5013461;28;20553;-74
2023/05/04 08:29:25;;;;;;;13.07;7.47;;;;;;;;;;5013902;28;20485;-73
2023/05/04 08:31:54;;;;;;;11.40;7.80;;;;;;;;;;5012721;28;20969;-73
2023/05/04 08:34:23;;;;;;;10.33;6.70;;;;;;;;;;5013098;28;20454;-74
2023/05/04 08:36:51;;;;;;;9.40;6.87;;;;;;;;;;5013625;28;20796;-72
2023/05/04 08:39:18;;;;;;;6.97;6.27;;;;;;;;;;5014217;28;20476;-74
2023/05/04 08:41:46;;;;;;;10.27;6.77;;;;;;;;;;5013287;28;20796;-73
2023/05/04 08:44:13;;;;;;;8.47;6.43;;;;;;;;;;5013400;28;20438;-74
2023/05/04 08:46:41;;;;;;;10.20;6.50;;;;;;;;;;5013819;28;20446;-74
2023/05/04 08:49:09;;;;;;;16.47;13.07;;;;;;;;;;5013119;28;20450;-74
2023/05/04 08:51:37;;;;;;;8.00;7.07;;;;;;;;;;5013435;28;20485;-73
2023/05/04 08:54:07;;;;;;;11.17;6.93;;;;;;;;;;5012934;28;20450;-73
2023/05/04 08:56:35;;;;;;;6.83;5.93;;;;;;;;;;5013046;28;20450;-74
2023/05/04 08:59:03;;;;;;;9.43;5.77;;;;;;;;;;5013192;28;20536;-72
2023/05/04 09:01:30;;;;;;;7.43;6.73;;;;;;;;;;5013359;28;20539;-72
2023/05/04 09:03:58;;;;;;;9.83;7.23;;;;;;;;;;5012961;28;20461;-74
2023/05/04 09:06:26;;;;;;;10.43;6.80;;;;;;;;;;5013529;28;20446;-73
2023/05/04 09:08:54;;;;;;;9.50;6.83;;;;;;;;;;5012702;28;20461;-74
2023/05/04 09:11:21;;;;;;;7.50;6.80;;;;;;;;;;5013250;28;20807;-73
2023/05/04 09:13:49;;;;;;;8.60;6.30;;;;;;;;;;5013411;28;20800;-73
2023/05/04 09:16:16;;;;;;;11.17;6.83;;;;;;;;;;5013255;28;20446;-74
2023/05/04 09:18:44;;;;;;;9.70;6.50;;;;;;;;;;5012610;28;20534;-72
2023/05/04 09:21:12;;;;;;;7.03;5.73;;;;;;;;;;5013911;28;20461;-74
2023/05/04 09:23:48;;;;;;;9.60;6.17;;;;;;;;;;5012803;28;20445;-73
2023/05/04 09:26:27;;;;;;;8.63;7.30;;;;;;;;;;5013145;28;20448;-72
2023/05/04 09:28:54;;;;;;;9.40;6.70;;;;;;;;;;5013250;28;20430;-74
2023/05/04 09:31:22;;;;;;;6.17;5.67;;;;;;;;;;5012711;28;20958;-72
2023/05/04 09:33:49;;;;;;;7.90;5.40;;;;;;;;;;5012625;28;20436;-72
2023/05/04 09:36:16;;;;;;;8.83;6.73;;;;;;;;;;5013008;28;20457;-72
2023/05/04 09:38:44;;;;;;;6.33;5.60;;;;;;;;;;5012920;28;20498;-72
2023/05/04 09:41:11;;;;;;;6.60;5.97;;;;;;;;;;5016075;28;20455;-72
2023/05/04 09:43:40;;;;;;;14.83;7.30;;;;;;;;;;5016086;28;20452;-71
2023/05/04 09:46:08;;;;;;;6.87;6.20;;;;;;;;;;5016472;28;20439;-72
2023/05/04 09:48:35;;;;;;;10.77;6.60;;;;;;;;;;5016073;28;20460;-71
2023/05/04 09:51:05;;;;;;;8.03;6.57;;;;;;;;;;5016532;28;20942;-72
2023/05/04 09:53:32;;;;;;;9.63;7.07;;;;;;;;;;5015826;28;20995;-72
2023/05/04 09:56:02;;;;;;;6.90;6.20;;;;;;;;;;5016405;28;20449;-72
2023/05/04 09:58:30;;;;;;;10.33;6.80;;;;;;;;;;5015793;28;20584;-72
2023/05/04 10:01:01;;;;;;;9.90;6.10;;;;;;;;;;5015800;28;20481;-72
2023/05/04 10:03:28;;;;;;;9.10;6.23;;;;;;;;;;5016042;28;20442;-72
2023/05/04 10:05:56;;;;;;;13.97;7.50;;;;;;;;;;5015987;28;20441;-72
2023/05/04 10:08:23;;;;;;;8.40;6.20;;;;;;;;;;5015994;28;20799;-73
2023/05/04 10:10:51;;;;;;;7.40;6.57;;;;;;;;;;5015966;28;20798;-72
2023/05/04 10:13:18;;;;;;;10.10;7.10;;;;;;;;;;5016281;28;20445;-72
2023/05/04 10:15:50;;;;;;;7.50;6.80;;;;;;;;;;5015902;28;20452;-72
2023/05/04 10:18:23;;;;;;;11.07;7.13;;;;;;;;;;5015730;28;20564;-72
2023/05/04 10:21:15;;;;;;;10.50;7.00;;;;;;;;;;5015499;28;20441;-74
2023/05/04 10:23:49;;;;;;;11.13;6.83;;;;;;;;;;5015374;28;20430;-74
2023/05/04 10:26:25;;;;;;;7.17;6.47;;;;;;;;;;5016412;28;20437;-73
2023/05/04 10:28:59;;;;;;;8.13;6.73;;;;;;;;;;5015995;28;20787;-74
2023/05/04 10:31:26;;;;;;;7.93;6.43;;;;;;;;;;5015539;28;20840;-74
2023/05/04 10:33:55;;;;;;;9.63;7.03;;;;;;;;;;5015158;28;20447;-73
2023/05/04 10:36:22;;;;;;;11.03;6.90;;;;;;;;;;5015451;28;20455;-73
2023/05/04 10:38:49;;;;;;;10.43;6.43;;;;;;;;;;5014791;28;20494;-74
2023/05/04 10:41:16;;;;;;;8.00;7.00;;;;;;;;;;5015074;28;20967;-73
2023/05/04 10:43:47;;;;;;;14.80;7.00;;;;;;;;;;5015314;28;20438;-74
2023/05/04 10:46:21;;;;;;;8.53;6.63;;;;;;;;;;5015795;28;20511;-73
2023/05/04 10:48:48;;;;;;;8.40;6.30;;;;;;;;;;5014658;28;20541;-74
2023/05/04 10:51:21;;;;;;;10.87;6.10;;;;;;;;;;5014793;28;20445;-73
2023/05/04 10:53:48;;;;;;;7.27;6.50;;;;;;;;;;5015297;28;20443;-74
2023/05/04 10:56:25;;;;;;;10.73;5.70;;;;;;;;;;5014898;28;20439;-73
2023/05/04 10:58:52;;;;;;;8.37;6.00;;;;;;;;;;5014632;28;20940;-74
2023/05/04 11:01:20;;;;;;;6.50;5.57;;;;;;;;;;5015419;28;20447;-74
2023/05/04 11:03:48;;;;;;;10.83;6.87;;;;;;;;;;5014723;28;20443;-73
2023/05/04 11:06:16;;;;;;;8.37;5.60;;;;;;;;;;5014925;28;20525;-74
2023/05/04 11:08:46;;;;;;;6.90;5.67;;;;;;;;;;5014502;28;20520;-73
2023/05/04 11:11:13;;;;;;;9.57;5.90;;;;;;;;;;5014667;28;20524;-73
2023/05/04 11:13:45;;;;;;;5.50;5.00;;;;;;;;;;5014822;28;20452;-74
2023/05/04 11:16:12;;;;;;;6.07;4.53;;;;;;;;;;5014483;28;20985;-72
2023/05/04 11:18:40;;;;;;;6.50;5.90;;;;;;;;;;5014607;28;20482;-73
2023/05/04 11:21:08;;;;;;;7.87;5.33;;;;;;;;;;5014628;28;20447;-73
2023/05/04 11:23:35;;;;;;;7.53;5.03;;;;;;;;;;5014538;28;20446;-73
2023/05/04 11:26:08;;;;;;;18.00;6.83;;;;;;;;;;5014582;28;20454;-73
2023/05/04 11:28:36;;;;;;;7.60;6.00;;;;;;;;;;5014526;28;20867;-73
2023/05/04 11:31:12;;;;;;;6.23;5.17;;;;;;;;;;5014578;28;20526;-73
2023/05/04 11:33:39;;;;;;;6.80;5.67;;;;;;;;;;5014586;28;20481;-73
2023/05/04 11:36:07;;;;;;;6.10;5.30;;;;;;;;;;5014402;28;20772;-73
2023/05/04 11:38:35;;;;;;;6.27;5.10;;;;;;;;;;5014111;28;20498;-72
2023/05/04 11:41:02;;;;;;;4.70;3.43;;;;;;;;;;5014365;28;20446;-73
2023/05/04 11:43:31;;;;;;;3.53;3.23;;;;;;;;;;5014269;28;20447;-71
2023/05/04 11:45:59;;;;;;;6.53;4.20;;;;;;;;;;5014084;28;20447;-72
2023/05/04 11:48:26;;;;;;;7.40;4.43;;;;;;;;;;5013825;28;20505;-71
2023/05/04 11:50:55;;;;;;;4.83;3.83;;;;;;;;;;5013984;28;20780;-71
2023/05/04 11:53:22;;;;;;;9.43;3.70;;;;;;;;;;5014392;28;20447;-71
2023/05/04 11:55:51;;;;;;;9.30;4.10;;;;;;;;;;5013560;28;20446;-71
2023/05/04 11:58:24;;;;;;;9.23;4.03;;;;;;;;;;5014056;28;20500;-71
2023/05/04 12:00:56;;;;;;;5.00;4.50;;;;;;;;;;5012440;28;20505;-71
2023/05/04 12:03:28;;;;;;;5.43;3.80;;;;;;;;;;5013488;28;20796;-71
2023/05/04 12:05:55;;;;;;;4.40;4.00;;;;;;;;;;5013503;28;20450;-70
2023/05/04 12:08:24;;;;;;;6.90;4.60;;;;;;;;;;5013796;28;20469;-71
2023/05/04 12:10:52;;;;;;;4.20;3.90;;;;;;;;;;5013348;28;20624;-71
2023/05/04 12:13:19;;;;;;;7.80;4.40;;;;;;;;;;5014044;28;20456;-71
2023/05/04 12:15:46;;;;;;;4.10;3.70;;;;;;;;;;5013587;28;20439;-71
2023/05/04 12:18:28;;;;;;;4.43;3.87;;;;;;;;;;5013729;28;20439;-71
2023/05/04 12:20:55;;;;;;;4.33;3.83;;;;;;;;;;5013721;28;20840;-71
2023/05/04 12:23:22;;;;;;;9.00;4.13;;;;;;;;;;5013775;28;20462;-71
2023/05/04 12:25:49;;;;;;;4.77;4.37;;;;;;;;;;5013798;28;20461;-71
2023/05/04 12:28:18;;;;;;;6.50;5.23;;;;;;;;;;5013255;28;20443;-70
2023/05/04 12:30:45;;;;;;;5.97;5.40;;;;;;;;;;5012965;28;20936;-71
2023/05/04 12:33:12;;;;;;;4.53;4.23;;;;;;;;;;5013138;28;20940;-70
2023/05/04 12:35:41;;;;;;;5.10;4.60;;;;;;;;;;5012975;28;20962;-70
2023/05/04 12:38:08;;;;;;;5.30;4.80;;;;;;;;;;5012941;28;20482;-70
2023/05/04 12:40:35;;;;;;;6.27;5.07;;;;;;;;;;5013143;28;20527;-70
2023/05/04 12:43:03;;;;;;;8.50;5.50;;;;;;;;;;5013369;28;20487;-70
2023/05/04 12:45:30;;;;;;;9.93;5.30;;;;;;;;;;5013232;28;20451;-71
2023/05/04 12:47:57;;;;;;;5.60;4.87;;;;;;;;;;5013385;28;20447;-70
2023/05/04 12:50:25;;;;;;;12.33;5.87;;;;;;;;;;5012784;28;20461;-71
2023/05/04 12:52:53;;;;;;;6.33;5.73;;;;;;;;;;5013322;28;20537;-70
2023/05/04 12:55:21;;;;;;;5.93;5.33;;;;;;;;;;5012972;28;20449;-71
2023/05/04 12:57:48;;;;;;;5.70;5.13;;;;;;;;;;5013310;28;20451;-71
2023/05/04 13:00:16;;;;;;;6.27;4.63;;;;;;;;;;5013089;28;20896;-71
2023/05/04 13:02:43;;;;;;;5.93;4.80;;;;;;;;;;5013323;28;20447;-71
2023/05/04 13:05:11;;;;;;;8.83;4.73;;;;;;;;;;5013256;28;20443;-71
2023/05/04 13:07:39;;;;;;;5.53;4.90;;;;;;;;;;5012943;28;20840;-70
2023/05/04 13:10:08;;;;;;;5.83;5.23;;;;;;;;;;5013163;28;20456;-71
2023/05/04 13:12:35;;;;;;;9.20;5.50;;;;;;;;;;5012881;28;20444;-71
2023/05/04 13:15:02;;;;;;;10.30;5.70;;;;;;;;;;5017117;28;20849;-71
2023/05/04 13:17:32;;;;;;;5.37;4.60;;;;;;;;;;5016819;28;20440;-70
2023/05/04 13:20:00;;;;;;;6.33;5.27;;;;;;;;;;5016417;28;20486;-69
2023/05/04 13:22:27;;;;;;;5.50;5.00;;;;;;;;;;5016634;28;20451;-70
2023/05/04 13:24:54;;;;;;;12.47;5.47;;;;;;;;;;5016794;28;20443;-70
2023/05/04 13:27:23;;;;;;;5.60;4.90;;;;;;;;;;5016750;28;20444;-70
2023/05/04 13:29:50;;;;;;;5.03;4.53;;;;;;;;;;5016719;28;20452;-69
2023/05/04 13:32:17;;;;;;;6.40;5.43;;;;;;;;;;5016167;28;20532;-69
2023/05/04 13:34:44;;;;;;;9.17;5.60;;;;;;;;;;5016512;28;20439;-70
2023/05/04 13:37:17;;;;;;;7.43;6.13;;;;;;;;;;5015967;28;20965;-70
2023/05/04 13:39:44;;;;;;;5.93;5.40;;;;;;;;;;5016815;28;20475;-70
2023/05/04 13:42:11;;;;;;;6.33;5.20;;;;;;;;;;5016430;28;20447;-69
2023/05/04 13:44:43;;;;;;;6.00;5.40;;;;;;;;;;5016230;28;20851;-70
2023/05/04 13:47:11;;;;;;;8.60;5.67;;;;;;;;;;5016311;28;20469;-69
2023/05/04 13:49:38;;;;;;;6.27;5.67;;;;;;;;;;5016261;28;20443;-70
2023/05/04 13:52:06;;;;;;;7.17;5.57;;;;;;;;;;5016078;28;20784;-69
2023/05/04 13:54:33;;;;;;;5.30;4.80;;;;;;;;;;5015951;28;20450;-69
2023/05/04 13:57:01;;;;;;;6.03;5.30;;;;;;;;;;5015671;28;20476;-69
2023/05/04 13:59:28;;;;;;;10.23;5.67;;;;;;;;;;5015676;28;20484;-69
2023/05/04 14:01:57;;;;;;;6.27;5.30;;;;;;;;;;5015843;28;20447;-69
2023/05/04 14:04:24;;;;;;;5.30;4.90;;;;;;;;;;5015637;28;20976;-71
2023/05/04 14:06:52;;;;;;;8.73;5.30;;;;;;;;;;5015776;28;20806;-70
2023/05/04 14:09:19;;;;;;;5.63;4.93;;;;;;;;;;5016020;28;20460;-69
2023/05/04 14:11:47;;;;;;;5.47;4.97;;;;;;;;;;5015759;28;20449;-70
2023/05/04 14:14:14;;;;;;;8.23;5.47;;;;;;;;;;5015779;28;20441;-70
2023/05/04 14:16:41;;;;;;;5.93;5.43;;;;;;;;;;5015261;28;20539;-70
2023/05/04 14:19:10;;;;;;;11.13;5.50;;;;;;;;;;5015255;28;20440;-70
2023/05/04 14:21:37;;;;;;;9.00;6.70;;;;;;;;;;5015557;28;20450;-70
2023/05/04 14:24:04;;;;;;;7.03;6.27;;;;;;;;;;5015458;28;20446;-70
2023/05/04 14:26:32;;;;;;;6.50;5.37;;;;;;;;;;5014791;28;20446;-70
2023/05/04 14:28:59;;;;;;;8.03;5.50;;;;;;;;;;5015113;28;20499;-70
2023/05/04 14:31:26;;;;;;;8.00;5.50;;;;;;;;;;5015530;28;20449;-69
2023/05/04 14:33:58;;;;;;;6.87;6.17;;;;;;;;;;5015307;28;20798;-70
2023/05/04 14:36:27;;;;;;;10.97;5.97;;;;;;;;;;5015004;28;20422;-70
2023/05/04 14:38:54;;;;;;;7.90;6.53;;;;;;;;;;5014590;28;20521;-70
2023/05/04 14:41:21;;;;;;;8.40;5.87;;;;;;;;;;5015394;28;20490;-69
2023/05/04 14:43:48;;;;;;;7.60;6.30;;;;;;;;;;5015055;28;20449;-70